sensor_id;sensor_type;location;lat;lon;timestamp;pressure;altitude;pressure_sealevel;temperature;humidity
20710;BME280;10516;51.518;9.864;2023-04-01T00:00:59;96853.56;;;8.81;89.08
20710;BME280;10516;51.518;9.864;2023-04-01T00:03:25;96854.13;;;8.78;89.62
20710;BME280;10516;51.518;9.864;2023-04-01T00:05:52;96848.09;;;8.73;89.52
20710;BME280;10516;51.518;9.864;2023-04-01T00:08:17;96852.47;;;8.82;89.34
20710;BME280;10516;51.518;9.864;2023-04-01T00:10:43;96851.25;;;8.75;89.43
20710;BME280;10516;51.518;9.864;2023-04-01T00:13:08;96848.09;;;8.73;89.71
20710;BME280;10516;51.518;9.864;2023-04-01T00:15:34;96846.72;;;8.75;89.61
20710;BME280;10516;51.518;9.864;2023-04-01T00:17:59;96846.38;;;8.82;89.24
20710;BME280;10516;51.518;9.864;2023-04-01T00:20:25;96845.94;;;8.75;88.89
20710;BME280;10516;51.518;9.864;2023-04-01T00:22:51;96853.75;;;8.66;89.91
20710;BME280;10516;51.518;9.864;2023-04-01T00:25:16;96848.59;;;8.75;89.25
20710;BME280;10516;51.518;9.864;2023-04-01T00:27:41;96844.97;;;8.66;90.21
20710;BME280;10516;51.518;9.864;2023-04-01T00:30:07;96853.81;;;8.61;90.08
20710;BME280;10516;51.518;9.864;2023-04-01T00:32:33;96846.72;;;8.75;89.12
20710;BME280;10516;51.518;9.864;2023-04-01T00:34:58;96845.41;;;8.73;89.62
20710;BME280;10516;51.518;9.864;2023-04-01T00:37:24;96850.59;;;8.64;89.95
20710;BME280;10516;51.518;9.864;2023-04-01T00:39:50;96836.09;;;8.75;89.30
20710;BME280;10516;51.518;9.864;2023-04-01T00:42:15;96845.94;;;8.75;89.64
20710;BME280;10516;51.518;9.864;2023-04-01T00:44:40;96839.00;;;8.74;89.76
20710;BME280;10516;51.518;9.864;2023-04-01T00:47:06;96836.84;;;8.57;90.01
20710;BME280;10516;51.518;9.864;2023-04-01T00:49:40;96846.28;;;8.68;89.99
20710;BME280;10516;51.518;9.864;2023-04-01T00:52:07;96840.00;;;8.59;89.76
20710;BME280;10516;51.518;9.864;2023-04-01T00:54:33;96840.41;;;8.71;89.15
20710;BME280;10516;51.518;9.864;2023-04-01T00:57:07;96836.28;;;8.60;90.02
20710;BME280;10516;51.518;9.864;2023-04-01T00:59:34;96838.34;;;8.63;89.87
20710;BME280;10516;51.518;9.864;2023-04-01T01:02:01;96835.69;;;8.63;89.53
20710;BME280;10516;51.518;9.864;2023-04-01T01:04:28;96845.47;;;8.68;89.83
20710;BME280;10516;51.518;9.864;2023-04-01T01:07:00;96838.81;;;8.70;89.47
20710;BME280;10516;51.518;9.864;2023-04-01T01:14:36;96845.72;;;8.48;89.78
20710;BME280;10516;51.518;9.864;2023-04-01T01:17:10;96846.13;;;8.60;90.06
20710;BME280;10516;51.518;9.864;2023-04-01T01:19:45;96848.44;;;8.66;89.62
20710;BME280;10516;51.518;9.864;2023-04-01T01:22:20;96847.41;;;8.62;89.73
20710;BME280;10516;51.518;9.864;2023-04-01T01:24:54;96850.25;;;8.71;89.75
20710;BME280;10516;51.518;9.864;2023-04-01T01:27:21;96839.69;;;8.42;89.46
20710;BME280;10516;51.518;9.864;2023-04-01T01:32:18;96837.81;;;8.43;90.70
20710;BME280;10516;51.518;9.864;2023-04-01T01:34:53;96836.38;;;8.50;89.58
20710;BME280;10516;51.518;9.864;2023-04-01T01:37:21;96836.47;;;8.45;90.06
20710;BME280;10516;51.518;9.864;2023-04-01T01:39:51;96833.69;;;8.55;90.01
20710;BME280;10516;51.518;9.864;2023-04-01T01:42:19;96836.38;;;8.50;90.48
20710;BME280;10516;51.518;9.864;2023-04-01T01:44:46;96833.50;;;8.47;90.46
20710;BME280;10516;51.518;9.864;2023-04-01T01:47:12;96836.34;;;8.55;90.44
20710;BME280;10516;51.518;9.864;2023-04-01T01:49:38;96832.88;;;8.55;89.71
20710;BME280;10516;51.518;9.864;2023-04-01T01:52:05;96838.47;;;8.53;90.10
20710;BME280;10516;51.518;9.864;2023-04-01T01:54:30;96836.28;;;8.60;90.20
20710;BME280;10516;51.518;9.864;2023-04-01T01:56:59;96830.31;;;8.68;89.30
20710;BME280;10516;51.518;9.864;2023-04-01T01:59:28;96836.03;;;8.57;89.54
20710;BME280;10516;51.518;9.864;2023-04-01T02:01:54;96844.25;;;8.60;90.01
20710;BME280;10516;51.518;9.864;2023-04-01T02:04:21;96836.13;;;8.52;89.58
20710;BME280;10516;51.518;9.864;2023-04-01T02:06:49;96837.69;;;8.53;89.78
20710;BME280;10516;51.518;9.864;2023-04-01T02:09:17;96843.84;;;8.48;90.50
20710;BME280;10516;51.518;9.864;2023-04-01T02:11:51;96830.50;;;8.53;89.53
20710;BME280;10516;51.518;9.864;2023-04-01T02:14:21;96839.44;;;8.62;89.53
20710;BME280;10516;51.518;9.864;2023-04-01T02:19:13;96832.59;;;8.56;89.61
20710;BME280;10516;51.518;9.864;2023-04-01T02:21:39;96846.91;;;8.60;89.63
20710;BME280;10516;51.518;9.864;2023-04-01T02:24:06;96836.81;;;8.39;90.52
20710;BME280;10516;51.518;9.864;2023-04-01T02:26:33;96838.47;;;8.53;90.18
20710;BME280;10516;51.518;9.864;2023-04-01T02:28:59;96832.59;;;8.56;90.27
20710;BME280;10516;51.518;9.864;2023-04-01T02:31:25;96839.78;;;8.56;89.46
20710;BME280;10516;51.518;9.864;2023-04-01T02:33:51;96843.28;;;8.51;89.79
20710;BME280;10516;51.518;9.864;2023-04-01T02:36:18;96845.25;;;8.64;89.79
20710;BME280;10516;51.518;9.864;2023-04-01T02:38:44;96836.53;;;8.11;90.70
20710;BME280;10516;51.518;9.864;2023-04-01T02:41:10;96846.84;;;8.42;90.85
20710;BME280;10516;51.518;9.864;2023-04-01T02:43:35;96842.28;;;8.47;90.33
20710;BME280;10516;51.518;9.864;2023-04-01T02:46:01;96854.66;;;8.33;91.24
20710;BME280;10516;51.518;9.864;2023-04-01T02:48:26;96840.63;;;8.51;90.05
20710;BME280;10516;51.518;9.864;2023-04-01T02:50:52;96848.53;;;8.56;89.23
20710;BME280;10516;51.518;9.864;2023-04-01T02:53:17;96840.06;;;8.54;89.07
20710;BME280;10516;51.518;9.864;2023-04-01T02:55:42;96850.25;;;8.47;90.39
20710;BME280;10516;51.518;9.864;2023-04-01T02:58:07;96848.03;;;8.54;89.40
20710;BME280;10516;51.518;9.864;2023-04-01T03:00:33;96845.63;;;8.58;89.97
20710;BME280;10516;51.518;9.864;2023-04-01T03:02:58;96844.94;;;8.47;89.71
20710;BME280;10516;51.518;9.864;2023-04-01T03:05:23;96841.69;;;8.50;89.31
20710;BME280;10516;51.518;9.864;2023-04-01T03:07:49;96847.78;;;8.32;89.46
20710;BME280;10516;51.518;9.864;2023-04-01T03:10:14;96837.47;;;8.49;89.25
20710;BME280;10516;51.518;9.864;2023-04-01T03:12:40;96846.75;;;8.52;89.97
20710;BME280;10516;51.518;9.864;2023-04-01T03:15:06;96846.41;;;8.58;89.00
20710;BME280;10516;51.518;9.864;2023-04-01T03:17:31;96847.88;;;8.46;89.81
20710;BME280;10516;51.518;9.864;2023-04-01T03:19:56;96841.50;;;8.18;90.17
20710;BME280;10516;51.518;9.864;2023-04-01T03:22:21;96840.38;;;8.24;90.41
20710;BME280;10516;51.518;9.864;2023-04-01T03:24:47;96842.47;;;8.32;90.81
20710;BME280;10516;51.518;9.864;2023-04-01T03:27:13;96841.19;;;8.48;89.75
20710;BME280;10516;51.518;9.864;2023-04-01T03:29:38;96845.16;;;8.27;90.08
20710;BME280;10516;51.518;9.864;2023-04-01T03:32:04;96847.19;;;8.35;89.50
20710;BME280;10516;51.518;9.864;2023-04-01T03:34:29;96851.78;;;8.29;89.64
20710;BME280;10516;51.518;9.864;2023-04-01T03:36:54;96852.75;;;8.39;90.32
20710;BME280;10516;51.518;9.864;2023-04-01T03:39:20;96852.91;;;8.47;89.54
20710;BME280;10516;51.518;9.864;2023-04-01T03:41:45;96859.59;;;8.45;88.89
20710;BME280;10516;51.518;9.864;2023-04-01T03:44:11;96857.19;;;8.43;89.73
20710;BME280;10516;51.518;9.864;2023-04-01T03:46:36;96851.72;;;8.35;89.68
20710;BME280;10516;51.518;9.864;2023-04-01T03:49:01;96854.69;;;8.28;89.64
20710;BME280;10516;51.518;9.864;2023-04-01T03:51:27;96846.41;;;8.35;90.09
20710;BME280;10516;51.518;9.864;2023-04-01T03:53:52;96850.88;;;8.39;89.43
20710;BME280;10516;51.518;9.864;2023-04-01T03:56:17;96845.53;;;8.39;89.72
20710;BME280;10516;51.518;9.864;2023-04-01T03:58:42;96853.53;;;8.39;89.80
20710;BME280;10516;51.518;9.864;2023-04-01T04:01:19;96852.97;;;8.42;89.58
20710;BME280;10516;51.518;9.864;2023-04-01T04:03:45;96850.94;;;8.34;90.53
20710;BME280;10516;51.518;9.864;2023-04-01T04:06:12;96852.47;;;8.40;89.24
20710;BME280;10516;51.518;9.864;2023-04-01T04:08:37;96854.78;;;8.47;89.87
20710;BME280;10516;51.518;9.864;2023-04-01T04:11:03;96858.44;;;8.27;89.79
20710;BME280;10516;51.518;9.864;2023-04-01T04:13:28;96861.31;;;8.30;90.54
20710;BME280;10516;51.518;9.864;2023-04-01T04:15:53;96855.91;;;8.41;90.21
20710;BME280;10516;51.518;9.864;2023-04-01T04:18:18;96863.13;;;8.35;89.89
20710;BME280;10516;51.518;9.864;2023-04-01T04:20:47;96859.97;;;8.33;89.48
20710;BME280;10516;51.518;9.864;2023-04-01T04:23:16;96855.25;;;8.25;90.22
20710;BME280;10516;51.518;9.864;2023-04-01T04:25:52;96854.94;;;8.32;90.55
20710;BME280;10516;51.518;9.864;2023-04-01T04:28:17;96866.47;;;8.17;90.98
20710;BME280;10516;51.518;9.864;2023-04-01T04:30:43;96863.28;;;8.20;90.75
20710;BME280;10516;51.518;9.864;2023-04-01T04:33:08;96859.97;;;8.33;90.15
20710;BME280;10516;51.518;9.864;2023-04-01T04:35:33;96863.91;;;8.12;90.36
20710;BME280;10516;51.518;9.864;2023-04-01T04:37:58;96863.44;;;8.05;90.90
20710;BME280;10516;51.518;9.864;2023-04-01T04:40:23;96869.69;;;8.19;89.94
20710;BME280;10516;51.518;9.864;2023-04-01T04:42:49;96867.53;;;8.21;90.18
20710;BME280;10516;51.518;9.864;2023-04-01T04:45:14;96861.13;;;8.22;90.13
20710;BME280;10516;51.518;9.864;2023-04-01T04:47:39;96861.75;;;8.14;90.55
20710;BME280;10516;51.518;9.864;2023-04-01T04:50:05;96868.28;;;8.26;89.48
20710;BME280;10516;51.518;9.864;2023-04-01T04:52:30;96864.28;;;8.29;89.35
20710;BME280;10516;51.518;9.864;2023-04-01T04:54:58;96861.63;;;8.24;89.72
20710;BME280;10516;51.518;9.864;2023-04-01T04:57:23;96872.03;;;8.20;89.57
20710;BME280;10516;51.518;9.864;2023-04-01T04:59:48;96871.91;;;8.07;89.54
20710;BME280;10516;51.518;9.864;2023-04-01T05:02:13;96874.75;;;8.15;89.73
20710;BME280;10516;51.518;9.864;2023-04-01T05:04:38;96875.75;;;8.19;89.82
20710;BME280;10516;51.518;9.864;2023-04-01T05:07:04;96873.09;;;8.19;90.30
20710;BME280;10516;51.518;9.864;2023-04-01T05:09:29;96874.00;;;8.10;89.62
20710;BME280;10516;51.518;9.864;2023-04-01T05:11:55;96877.69;;;8.14;90.03
20710;BME280;10516;51.518;9.864;2023-04-01T05:14:20;96879.22;;;8.20;89.91
20710;BME280;10516;51.518;9.864;2023-04-01T05:16:45;96882.75;;;8.10;89.74
20710;BME280;10516;51.518;9.864;2023-04-01T05:19:10;96878.16;;;8.21;90.56
20710;BME280;10516;51.518;9.864;2023-04-01T05:21:36;96884.69;;;8.05;89.73
20710;BME280;10516;51.518;9.864;2023-04-01T05:24:01;96881.31;;;8.23;89.45
20710;BME280;10516;51.518;9.864;2023-04-01T05:26:26;96887.69;;;8.27;89.48
20710;BME280;10516;51.518;9.864;2023-04-01T05:28:51;96887.41;;;8.28;89.27
20710;BME280;10516;51.518;9.864;2023-04-01T05:31:17;96891.41;;;8.26;89.54
20710;BME280;10516;51.518;9.864;2023-04-01T05:33:42;96887.16;;;8.25;90.09
20710;BME280;10516;51.518;9.864;2023-04-01T05:36:11;96888.75;;;8.26;89.65
20710;BME280;10516;51.518;9.864;2023-04-01T05:38:37;96889.25;;;8.28;89.34
20710;BME280;10516;51.518;9.864;2023-04-01T05:41:02;96889.75;;;8.30;89.49
20710;BME280;10516;51.518;9.864;2023-04-01T05:43:28;96886.56;;;8.33;89.38
20710;BME280;10516;51.518;9.864;2023-04-01T05:45:54;96880.53;;;8.22;89.49
20710;BME280;10516;51.518;9.864;2023-04-01T05:48:20;96888.03;;;8.15;89.85
20710;BME280;10516;51.518;9.864;2023-04-01T05:50:45;96889.81;;;8.25;90.34
20710;BME280;10516;51.518;9.864;2023-04-01T05:53:10;96888.41;;;8.32;89.17
20710;BME280;10516;51.518;9.864;2023-04-01T05:55:35;96885.53;;;8.29;89.49
20710;BME280;10516;51.518;9.864;2023-04-01T05:58:01;96891.13;;;8.27;89.83
20710;BME280;10516;51.518;9.864;2023-04-01T06:00:26;96895.03;;;8.35;88.96
20710;BME280;10516;51.518;9.864;2023-04-01T06:02:51;96894.97;;;8.11;90.02
20710;BME280;10516;51.518;9.864;2023-04-01T06:05:21;96895.66;;;8.27;88.97
20710;BME280;10516;51.518;9.864;2023-04-01T06:07:47;96887.97;;;8.25;90.13
20710;BME280;10516;51.518;9.864;2023-04-01T06:10:14;96896.69;;;8.31;89.32
20710;BME280;10516;51.518;9.864;2023-04-01T06:12:43;96896.97;;;8.29;89.34
20710;BME280;10516;51.518;9.864;2023-04-01T06:20:25;96900.94;;;8.32;89.49
20710;BME280;10516;51.518;9.864;2023-04-01T06:26:23;96899.41;;;8.21;90.10
20710;BME280;10516;51.518;9.864;2023-04-01T06:33:40;96904.31;;;8.38;89.22
20710;BME280;10516;51.518;9.864;2023-04-01T06:39:06;96914.16;;;8.37;89.29
20710;BME280;10516;51.518;9.864;2023-04-01T06:54:10;96914.50;;;8.54;89.35
20710;BME280;10516;51.518;9.864;2023-04-01T06:56:37;96921.41;;;8.55;89.51
20710;BME280;10516;51.518;9.864;2023-04-01T06:59:07;96924.78;;;8.61;89.52
20710;BME280;10516;51.518;9.864;2023-04-01T07:01:37;96918.72;;;8.60;88.86
20710;BME280;10516;51.518;9.864;2023-04-01T07:04:06;96924.06;;;8.55;89.75
20710;BME280;10516;51.518;9.864;2023-04-01T07:06:43;96920.06;;;8.58;89.03
20710;BME280;10516;51.518;9.864;2023-04-01T07:09:21;96933.47;;;8.71;88.25
20710;BME280;10516;51.518;9.864;2023-04-01T07:11:47;96922.88;;;8.66;88.93
20710;BME280;10516;51.518;9.864;2023-04-01T07:16:48;96925.16;;;8.78;88.91
20710;BME280;10516;51.518;9.864;2023-04-01T07:19:28;96922.75;;;8.76;88.38
20710;BME280;10516;51.518;9.864;2023-04-01T07:22:04;96927.41;;;8.66;88.96
20710;BME280;10516;51.518;9.864;2023-04-01T07:24:34;96920.63;;;8.78;88.82
20710;BME280;10516;51.518;9.864;2023-04-01T07:27:01;96929.19;;;8.75;89.50
20710;BME280;10516;51.518;9.864;2023-04-01T07:29:26;96929.78;;;8.67;89.92
20710;BME280;10516;51.518;9.864;2023-04-01T07:34:42;96925.94;;;8.78;88.64
20710;BME280;10516;51.518;9.864;2023-04-01T07:47:30;96933.91;;;8.78;89.66
